Time;durP1;ratioP1;P1;durP2;ratioP2;P2;SDS_P1;SDS_P2;PMS_P1;PMS_P2;Temp;Humidity;BMP_temperature;BMP_pressure;BME280_temperature;BME280_humidity;BME280_pressure;Samples;Min_cycle;Max_cycle;Signal;HPM_P1;HPM_P2
2021/06/19 00:01:03;;;;;;;18.80;6.83;;;25.30;99.90;;;;;;4972146;28;20190;-65
2021/06/19 00:03:28;;;;;;;14.00;5.70;;;25.40;99.90;;;;;;4973145;28;20214;-65
2021/06/19 00:05:54;;;;;;;11.03;6.63;;;25.70;99.90;;;;;;4971078;28;21098;-65
2021/06/19 00:08:24;;;;;;;8.30;6.87;;;25.60;99.90;;;;;;4972270;28;20701;-65
2021/06/19 00:10:53;;;;;;;10.90;7.13;;;25.40;99.90;;;;;;4971476;28;20198;-65
2021/06/19 00:13:18;;;;;;;8.63;6.57;;;25.50;99.90;;;;;;4972191;28;20847;-65
2021/06/19 00:15:44;;;;;;;12.03;6.13;;;25.40;99.90;;;;;;4969308;28;20464;-65
2021/06/19 00:18:10;;;;;;;8.63;7.00;;;25.20;99.90;;;;;;4973093;28;20670;-65
2021/06/19 00:20:36;;;;;;;10.17;7.20;;;25.10;99.90;;;;;;4997813;23;20770;-76
2021/06/19 00:23:01;;;;;;;8.07;6.23;;;25.10;99.90;;;;;;4975604;28;20878;-76
2021/06/19 00:25:28;;;;;;;9.63;7.23;;;25.10;99.90;;;;;;4979018;28;20795;-76
2021/06/19 00:27:54;;;;;;;17.23;6.70;;;25.20;99.90;;;;;;4971322;28;20270;-77
2021/06/19 00:30:21;;;;;;;14.60;7.57;;;25.10;99.90;;;;;;4971853;28;20442;-77
2021/06/19 00:32:48;;;;;;;15.67;6.97;;;25.00;99.90;;;;;;4970273;28;20472;-76
2021/06/19 00:35:14;;;;;;;10.07;7.43;;;25.30;99.90;;;;;;4969376;28;20466;-75
2021/06/19 00:37:40;;;;;;;13.53;7.20;;;25.30;99.90;;;;;;4976427;28;20449;-76
2021/06/19 00:40:09;;;;;;;13.43;8.30;;;25.50;99.90;;;;;;4975908;28;20792;-77
2021/06/19 00:42:35;;;;;;;10.57;7.07;;;25.50;99.90;;;;;;4969329;28;20524;-77
2021/06/19 00:45:02;;;;;;;14.33;8.50;;;25.60;99.90;;;;;;4971812;28;20493;-76
2021/06/19 00:47:27;;;;;;;9.43;6.30;;;25.60;99.90;;;;;;4970322;28;20504;-75
2021/06/19 00:49:54;;;;;;;10.50;6.07;;;25.60;99.90;;;;;;4969412;28;21132;-77
2021/06/19 00:52:20;;;;;;;19.07;8.30;;;25.50;99.90;;;;;;4969735;28;20191;-76
2021/06/19 00:54:46;;;;;;;10.07;6.60;;;25.30;99.90;;;;;;4972544;28;20804;-76
2021/06/19 00:57:12;;;;;;;9.20;6.73;;;25.40;99.90;;;;;;4969768;28;20470;-77
2021/06/19 00:59:39;;;;;;;12.17;7.30;;;25.40;99.90;;;;;;4967549;28;20511;-77
2021/06/19 01:02:05;;;;;;;14.60;7.20;;;25.30;99.90;;;;;;4976907;28;20426;-76
2021/06/19 01:04:31;;;;;;;13.63;7.00;;;25.10;99.90;;;;;;4970536;28;20448;-77
2021/06/19 01:06:59;;;;;;;11.93;6.87;;;25.20;99.90;;;;;;4971783;28;20208;-77
2021/06/19 01:09:25;;;;;;;12.80;7.83;;;25.20;99.90;;;;;;4969773;28;21000;-77
2021/06/19 01:11:52;;;;;;;9.90;7.30;;;25.20;99.90;;;;;;4967488;28;20426;-77
2021/06/19 01:14:17;;;;;;;13.07;6.97;;;25.10;99.90;;;;;;4966306;28;20191;-76
2021/06/19 01:16:47;;;;;;;12.30;7.67;;;25.00;99.90;;;;;;4969421;28;20441;-77
2021/06/19 01:19:13;;;;;;;9.90;6.37;;;24.90;99.90;;;;;;4975698;28;20483;-77
2021/06/19 01:21:39;;;;;;;9.27;7.27;;;25.10;99.90;;;;;;4975580;28;20437;-76
2021/06/19 01:24:05;;;;;;;11.60;7.10;;;25.10;99.90;;;;;;4974135;28;20217;-77
2021/06/19 01:26:31;;;;;;;10.23;7.23;;;24.90;99.90;;;;;;4973388;28;20245;-77
2021/06/19 01:28:58;;;;;;;11.73;6.90;;;25.10;99.90;;;;;;4972575;28;20422;-77
2021/06/19 01:31:26;;;;;;;16.90;7.60;;;25.40;99.90;;;;;;4972324;28;20456;-77
2021/06/19 01:33:52;;;;;;;10.37;8.00;;;25.70;99.90;;;;;;4970622;28;20418;-77
2021/06/19 01:36:20;;;;;;;10.90;8.80;;;26.00;99.90;;;;;;4974465;28;20511;-76
2021/06/19 01:38:48;;;;;;;7.83;6.93;;;26.00;99.90;;;;;;4972509;28;20472;-76
2021/06/19 01:41:23;;;;;;;13.70;7.40;;;25.90;99.90;;;;;;4975508;28;20422;-77
2021/06/19 01:43:57;;;;;;;9.37;7.53;;;25.90;99.90;;;;;;4974970;28;20515;-76
2021/06/19 01:46:23;;;;;;;10.50;7.57;;;26.10;99.90;;;;;;4984390;28;20461;-76
2021/06/19 01:48:49;;;;;;;12.10;8.13;;;26.30;99.90;;;;;;4973391;28;20426;-77
2021/06/19 01:51:15;;;;;;;12.67;8.63;;;26.30;99.90;;;;;;4975931;28;20435;-77
2021/06/19 01:53:42;;;;;;;14.43;7.80;;;26.10;99.90;;;;;;4974777;28;20289;-77
2021/06/19 01:56:09;;;;;;;12.07;8.17;;;25.80;99.90;;;;;;4976325;28;20205;-77
2021/06/19 01:58:35;;;;;;;10.57;7.73;;;25.50;99.90;;;;;;4974562;28;21019;-76
2021/06/19 02:01:06;;;;;;;13.03;7.60;;;25.40;99.90;;;;;;4972991;28;20449;-77
2021/06/19 02:03:32;;;;;;;11.90;8.00;;;25.40;99.90;;;;;;4973238;28;20416;-77
2021/06/19 02:05:58;;;;;;;11.53;7.90;;;25.40;99.90;;;;;;4973388;28;20452;-76
2021/06/19 02:08:24;;;;;;;9.43;7.50;;;25.60;99.90;;;;;;4978560;28;20202;-76
2021/06/19 02:10:49;;;;;;;13.27;7.90;;;25.60;99.90;;;;;;4972281;28;20193;-77
2021/06/19 02:13:15;;;;;;;10.17;7.83;;;25.70;99.90;;;;;;4972912;28;20458;-76
2021/06/19 02:15:44;;;;;;;11.13;7.80;;;25.60;99.90;;;;;;4974185;28;20214;-77
2021/06/19 02:18:10;;;;;;;11.03;9.30;;;25.60;99.90;;;;;;4970921;28;20226;-75
2021/06/19 02:20:35;;;;;;;17.57;9.33;;;25.60;99.90;;;;;;4972459;28;20460;-76
2021/06/19 02:23:01;;;;;;;12.67;10.10;;;25.40;99.90;;;;;;4969509;28;20430;-77
2021/06/19 02:25:29;;;;;;;12.90;9.23;;;25.40;99.90;;;;;;4973630;28;20194;-76
2021/06/19 02:27:56;;;;;;;13.20;9.40;;;25.30;99.90;;;;;;4979121;28;20187;-75
2021/06/19 02:30:40;;;;;;;17.80;10.20;;;25.20;99.90;;;;;;4967130;28;20473;-77
2021/06/19 02:33:07;;;;;;;10.73;9.10;;;25.10;99.90;;;;;;4972891;28;20457;-76
2021/06/19 02:35:34;;;;;;;10.33;9.33;;;25.10;99.90;;;;;;4974771;28;20417;-77
2021/06/19 02:38:00;;;;;;;12.47;9.40;;;24.90;99.90;;;;;;4975902;28;20438;-77
2021/06/19 02:40:26;;;;;;;19.77;10.00;;;24.60;99.90;;;;;;4973369;28;20485;-76
2021/06/19 02:42:53;;;;;;;13.07;9.13;;;24.50;99.90;;;;;;4973224;28;20961;-77
2021/06/19 02:45:20;;;;;;;16.50;9.90;;;24.40;99.90;;;;;;4970648;28;20438;-76
2021/06/19 02:47:54;;;;;;;9.67;8.80;;;24.20;99.90;;;;;;4972611;28;20430;-77
2021/06/19 02:50:25;;;;;;;10.33;9.03;;;24.10;99.90;;;;;;4972460;28;20448;-76
2021/06/19 02:52:51;;;;;;;14.00;9.60;;;24.10;99.90;;;;;;4972590;28;20433;-77
2021/06/19 02:55:25;;;;;;;13.53;10.50;;;24.10;99.90;;;;;;4974391;28;20440;-76
2021/06/19 02:57:51;;;;;;;10.30;9.20;;;24.00;99.90;;;;;;4972096;28;20194;-77
2021/06/19 03:00:20;;;;;;;12.00;9.53;;;24.00;99.90;;;;;;4972080;28;21060;-77
2021/06/19 03:02:46;;;;;;;12.80;10.27;;;24.10;99.90;;;;;;4971106;28;20289;-77
2021/06/19 03:05:14;;;;;;;15.77;10.20;;;24.20;99.90;;;;;;4974838;28;21040;-75
2021/06/19 03:07:40;;;;;;;13.77;9.70;;;24.30;99.90;;;;;;4972812;28;20241;-76
2021/06/19 03:10:08;;;;;;;11.77;9.40;;;24.20;99.90;;;;;;4977322;28;20426;-77
2021/06/19 03:12:34;;;;;;;10.53;9.63;;;24.00;99.90;;;;;;4972894;28;20869;-77
2021/06/19 03:15:00;;;;;;;10.03;9.03;;;24.00;99.90;;;;;;4974561;28;20446;-77
2021/06/19 03:17:26;;;;;;;12.53;10.47;;;24.00;99.90;;;;;;4983772;28;20554;-77
2021/06/19 03:19:51;;;;;;;12.50;9.00;;;23.90;99.90;;;;;;4973311;28;20219;-76
2021/06/19 03:22:18;;;;;;;10.70;9.10;;;23.90;99.90;;;;;;4970914;28;20187;-76
2021/06/19 03:24:44;;;;;;;13.83;9.90;;;23.90;99.90;;;;;;4971561;28;20170;-77
2021/06/19 03:27:16;;;;;;;13.73;9.90;;;23.90;99.90;;;;;;4975818;28;20557;-77
2021/06/19 03:29:42;;;;;;;11.53;9.67;;;23.90;99.90;;;;;;4972475;28;20433;-77
2021/06/19 03:32:09;;;;;;;15.47;10.80;;;23.90;99.90;;;;;;4973421;28;20556;-77
2021/06/19 03:34:36;;;;;;;10.97;9.80;;;23.80;99.90;;;;;;4973809;28;21073;-77
2021/06/19 03:37:03;;;;;;;12.00;9.87;;;23.80;99.90;;;;;;4972125;28;20496;-77
2021/06/19 03:39:31;;;;;;;11.00;9.20;;;23.80;99.90;;;;;;4970524;28;21001;-76
2021/06/19 03:41:56;;;;;;;12.80;9.60;;;23.80;99.90;;;;;;4970423;28;20426;-76
2021/06/19 03:44:26;;;;;;;10.73;9.73;;;23.80;99.90;;;;;;4971321;28;20473;-76
2021/06/19 03:46:52;;;;;;;13.60;10.20;;;23.70;99.90;;;;;;4974676;28;20207;-76
2021/06/19 03:49:18;;;;;;;14.00;9.77;;;23.80;99.90;;;;;;4972718;28;20469;-77
2021/06/19 03:51:45;;;;;;;13.17;10.50;;;23.80;99.90;;;;;;4970866;28;20186;-76
2021/06/19 03:54:15;;;;;;;10.00;9.07;;;23.80;99.90;;;;;;4971631;28;20430;-76
2021/06/19 03:56:40;;;;;;;13.30;11.07;;;23.80;99.90;;;;;;4972858;28;20448;-76
2021/06/19 03:59:07;;;;;;;11.10;9.83;;;23.90;99.90;;;;;;4960721;28;20848;-75
2021/06/19 04:01:32;;;;;;;14.77;11.30;;;23.80;99.90;;;;;;4969648;28;20438;-75
2021/06/19 04:03:58;;;;;;;14.07;10.20;;;23.70;99.90;;;;;;4972866;28;20433;-76
2021/06/19 04:06:24;;;;;;;11.17;9.43;;;23.80;99.90;;;;;;4972090;28;20221;-76
2021/06/19 04:08:51;;;;;;;10.13;8.90;;;23.90;99.90;;;;;;4976354;28;20497;-76
2021/06/19 04:11:17;;;;;;;10.43;9.47;;;23.90;99.90;;;;;;4978709;23;20930;-66
2021/06/19 04:13:43;;;;;;;11.90;9.03;;;24.00;99.90;;;;;;4998770;23;20607;-60
2021/06/19 04:18:40;;;;;;;10.60;9.63;;;24.10;99.90;;;;;;4958257;28;20489;-65
2021/06/19 04:23:40;;;;;;;14.80;10.60;;;24.10;99.90;;;;;;4960264;28;20509;-65
2021/06/19 04:26:05;;;;;;;13.57;9.67;;;24.20;99.90;;;;;;4964183;28;20450;-65
2021/06/19 04:28:31;;;;;;;11.83;9.67;;;24.30;99.90;;;;;;4962966;28;20616;-65
2021/06/19 04:31:01;;;;;;;14.13;10.13;;;24.30;99.90;;;;;;4958999;28;20268;-65
2021/06/19 04:33:27;;;;;;;12.70;10.33;;;24.40;99.90;;;;;;4963193;28;20208;-66
2021/06/19 04:35:54;;;;;;;11.03;9.80;;;24.30;99.90;;;;;;4963517;28;20489;-65
2021/06/19 04:38:20;;;;;;;14.17;10.40;;;24.20;99.90;;;;;;4958867;28;20517;-65
2021/06/19 04:43:12;;;;;;;10.80;9.50;;;24.30;99.90;;;;;;4964026;28;20452;-65
2021/06/19 04:48:11;;;;;;;10.90;9.10;;;24.30;99.90;;;;;;4992423;23;20289;-61
2021/06/19 04:50:37;;;;;;;12.83;9.27;;;24.40;99.90;;;;;;4982017;23;20504;-65
2021/06/19 04:53:04;;;;;;;9.90;8.90;;;24.40;99.90;;;;;;4981889;28;20454;-65
2021/06/19 04:55:30;;;;;;;14.37;10.60;;;24.40;99.90;;;;;;4983778;28;20417;-65
2021/06/19 04:57:58;;;;;;;12.17;9.57;;;24.30;99.90;;;;;;4985523;28;20787;-65
2021/06/19 05:00:25;;;;;;;10.20;9.20;;;24.40;99.90;;;;;;4980957;28;20461;-65
2021/06/19 05:02:51;;;;;;;10.87;9.87;;;24.40;99.90;;;;;;4981492;28;20441;-65
2021/06/19 05:05:21;;;;;;;10.20;9.30;;;24.40;99.90;;;;;;4977856;28;20522;-65
2021/06/19 05:07:46;;;;;;;12.27;9.90;;;24.40;99.90;;;;;;4977307;28;20444;-64
2021/06/19 05:10:13;;;;;;;9.53;8.70;;;24.50;99.90;;;;;;4979859;28;20831;-64
2021/06/19 05:12:47;;;;;;;15.00;9.80;;;24.50;99.90;;;;;;4980359;28;20626;-64
2021/06/19 05:15:17;;;;;;;9.97;8.43;;;24.50;99.90;;;;;;4981695;28;20428;-65
2021/06/19 05:17:44;;;;;;;10.77;9.63;;;24.50;99.90;;;;;;4978507;28;20852;-64
2021/06/19 05:20:10;;;;;;;11.23;8.70;;;24.60;99.90;;;;;;4982744;28;20489;-64
2021/06/19 05:22:36;;;;;;;10.43;9.43;;;24.60;99.90;;;;;;4981140;28;20504;-64
2021/06/19 05:25:04;;;;;;;11.60;8.77;;;24.70;99.90;;;;;;4979729;28;21052;-65
2021/06/19 05:27:30;;;;;;;11.50;9.23;;;24.80;99.90;;;;;;4977124;28;20445;-65
2021/06/19 05:29:56;;;;;;;13.90;9.23;;;24.90;99.90;;;;;;4978933;28;20434;-65
2021/06/19 05:32:23;;;;;;;15.17;8.53;;;24.90;99.90;;;;;;4977636;28;20197;-65
2021/06/19 05:34:48;;;;;;;9.03;8.10;;;24.90;99.90;;;;;;4977312;28;20217;-65
2021/06/19 05:37:14;;;;;;;9.70;8.67;;;24.90;99.90;;;;;;5010301;23;21057;-65
2021/06/19 05:39:40;;;;;;;9.67;8.67;;;24.90;99.90;;;;;;4983106;28;20910;-65
2021/06/19 05:42:07;;;;;;;10.90;7.73;;;24.90;99.90;;;;;;4966593;28;20195;-65
2021/06/19 05:44:32;;;;;;;11.83;8.80;;;25.00;99.90;;;;;;4980724;28;20797;-64
2021/06/19 05:46:58;;;;;;;9.70;8.83;;;25.00;99.90;;;;;;4974362;28;20945;-65
2021/06/19 05:49:24;;;;;;;9.13;7.80;;;25.00;99.90;;;;;;4976473;28;20239;-65
2021/06/19 05:51:49;;;;;;;12.90;8.23;;;25.10;99.90;;;;;;4975927;28;20221;-65
2021/06/19 05:54:15;;;;;;;9.30;7.50;;;25.20;99.90;;;;;;4976804;28;20253;-65
2021/06/19 05:56:41;;;;;;;13.77;8.50;;;25.20;99.90;;;;;;4976209;28;20532;-65
2021/06/19 05:59:06;;;;;;;9.73;8.60;;;25.30;99.90;;;;;;4973954;28;20213;-64
2021/06/19 06:01:32;;;;;;;12.10;7.87;;;25.30;99.90;;;;;;4978423;28;20247;-65
2021/06/19 06:03:58;;;;;;;8.33;7.53;;;25.30;99.90;;;;;;4971741;28;20285;-65
2021/06/19 06:06:24;;;;;;;8.20;7.40;;;25.20;99.90;;;;;;4970734;28;20314;-64
2021/06/19 06:08:51;;;;;;;9.27;7.97;;;25.20;99.90;;;;;;4971050;28;20429;-65
2021/06/19 06:11:16;;;;;;;9.80;8.00;;;25.20;99.90;;;;;;4971373;28;20572;-65
2021/06/19 06:13:42;;;;;;;10.40;8.27;;;25.40;99.90;;;;;;4973043;28;20520;-65
2021/06/19 06:16:08;;;;;;;9.73;8.07;;;25.30;99.90;;;;;;4969707;28;20205;-64
2021/06/19 06:18:33;;;;;;;12.30;7.93;;;25.40;99.90;;;;;;4972679;28;20401;-65
2021/06/19 06:23:37;;;;;;;10.77;7.47;;;25.40;99.90;;;;;;5271138;23;20237;-64
2021/06/19 06:26:03;;;;;;;9.27;7.23;;;25.40;99.90;;;;;;4979833;28;20557;-65
2021/06/19 06:28:30;;;;;;;11.63;7.67;;;25.30;99.90;;;;;;4979504;28;20535;-65
2021/06/19 06:30:55;;;;;;;7.77;6.97;;;25.30;99.90;;;;;;4977810;28;20300;-65
2021/06/19 06:33:22;;;;;;;8.03;6.60;;;25.40;99.90;;;;;;4971978;28;20472;-65
2021/06/19 06:35:48;;;;;;;9.17;7.10;;;25.40;99.90;;;;;;4971199;28;20217;-64
2021/06/19 06:38:14;;;;;;;10.20;7.20;;;25.50;99.90;;;;;;4973029;28;20472;-64
2021/06/19 06:40:43;;;;;;;9.37;7.17;;;25.60;99.90;;;;;;4973409;28;20264;-63
2021/06/19 06:43:08;;;;;;;7.77;6.97;;;25.50;99.90;;;;;;4975733;28;20206;-65
2021/06/19 06:45:37;;;;;;;11.10;6.60;;;25.70;99.90;;;;;;4972076;28;20485;-65
2021/06/19 06:48:03;;;;;;;6.80;6.30;;;25.70;99.90;;;;;;4974129;28;20179;-65
2021/06/19 06:50:29;;;;;;;9.13;6.70;;;25.70;99.90;;;;;;5006165;23;20554;-64
2021/06/19 06:52:55;;;;;;;12.40;6.70;;;25.70;99.90;;;;;;4979806;28;20284;-64
2021/06/19 06:55:20;;;;;;;7.40;6.43;;;25.80;99.90;;;;;;5035007;23;20583;-65
2021/06/19 06:57:46;;;;;;;7.33;6.50;;;25.90;99.90;;;;;;4985505;28;20193;-63
2021/06/19 07:00:13;;;;;;;9.30;6.30;;;25.90;99.90;;;;;;4983402;28;20279;-63
2021/06/19 07:02:42;;;;;;;7.60;6.37;;;26.00;99.90;;;;;;4977555;28;20721;-63
2021/06/19 07:05:09;;;;;;;11.07;5.97;;;26.00;99.90;;;;;;4979647;28;20441;-65
2021/06/19 07:07:36;;;;;;;8.40;5.47;;;26.00;99.90;;;;;;4978312;23;21892;-60
2021/06/19 07:10:02;;;;;;;8.10;6.43;;;26.10;99.90;;;;;;4980276;28;20483;-60
2021/06/19 07:12:28;;;;;;;9.40;6.40;;;26.10;99.90;;;;;;5024502;23;20499;-65
2021/06/19 07:14:54;;;;;;;9.87;6.70;;;26.10;99.90;;;;;;5001417;23;20429;-59
2021/06/19 07:17:20;;;;;;;6.43;5.83;;;26.10;99.90;;;;;;5023792;23;20222;-66
2021/06/19 07:19:45;;;;;;;7.30;5.40;;;26.20;99.90;;;;;;4984094;28;20277;-66
2021/06/19 07:22:11;;;;;;;6.93;6.23;;;26.20;99.90;;;;;;4977276;28;20273;-64
2021/06/19 07:24:37;;;;;;;9.00;5.97;;;26.10;99.90;;;;;;4982204;28;20178;-64
2021/06/19 07:27:03;;;;;;;6.10;5.50;;;26.30;99.90;;;;;;4977699;28;20218;-64
2021/06/19 07:29:30;;;;;;;6.20;5.60;;;26.30;99.90;;;;;;4981600;28;20706;-63
2021/06/19 07:31:56;;;;;;;5.80;4.70;;;26.10;99.90;;;;;;4993561;23;20508;-59
2021/06/19 07:34:21;;;;;;;5.77;5.17;;;26.40;99.90;;;;;;4992749;23;20958;-64
2021/06/19 07:39:22;;;;;;;6.50;5.10;;;26.60;99.90;;;;;;4962281;28;20280;-65
2021/06/19 07:41:48;;;;;;;7.20;5.87;;;26.60;99.90;;;;;;4960186;28;20812;-65
2021/06/19 07:44:14;;;;;;;6.23;5.63;;;26.60;99.90;;;;;;4958503;28;20537;-65
2021/06/19 07:46:41;;;;;;;6.03;5.10;;;26.80;99.90;;;;;;4957048;28;20422;-65
2021/06/19 07:49:06;;;;;;;9.20;5.77;;;26.80;99.90;;;;;;4960369;28;20434;-65
2021/06/19 07:51:32;;;;;;;6.13;5.53;;;27.10;99.90;;;;;;4956201;28;20540;-65
2021/06/19 07:53:58;;;;;;;6.30;5.70;;;27.20;99.90;;;;;;4946036;28;20201;-64
2021/06/19 07:56:25;;;;;;;12.80;6.10;;;27.30;99.90;;;;;;4954778;28;20199;-64
2021/06/19 07:58:51;;;;;;;7.20;5.93;;;27.40;99.90;;;;;;4957546;28;20485;-66
2021/06/19 08:01:17;;;;;;;7.67;5.47;;;27.20;99.90;;;;;;4957960;28;20833;-67
2021/06/19 08:03:43;;;;;;;6.47;5.70;;;27.30;99.90;;;;;;4959395;28;20431;-65
2021/06/19 08:06:08;;;;;;;9.93;6.63;;;27.20;99.90;;;;;;4963602;28;20187;-64
2021/06/19 08:08:34;;;;;;;5.33;4.90;;;27.20;99.90;;;;;;4957101;28;20199;-64
2021/06/19 08:11:00;;;;;;;6.90;5.23;;;27.50;99.90;;;;;;4959561;28;20222;-65
2021/06/19 08:13:26;;;;;;;6.53;5.93;;;27.60;99.90;;;;;;4958402;28;20194;-63
2021/06/19 08:15:55;;;;;;;5.53;5.03;;;27.80;99.90;;;;;;4961399;28;20546;-64
2021/06/19 08:18:21;;;;;;;7.03;6.33;;;27.60;99.90;;;;;;4957746;28;20217;-64
2021/06/19 08:20:47;;;;;;;9.60;5.47;;;27.50;99.90;;;;;;4958615;28;20466;-64
2021/06/19 08:23:13;;;;;;;9.30;6.27;;;27.40;99.90;;;;;;4954906;28;20437;-65
2021/06/19 08:25:39;;;;;;;5.97;5.20;;;27.60;99.90;;;;;;4957897;28;20224;-66
2021/06/19 08:28:05;;;;;;;8.20;6.27;;;27.60;99.90;;;;;;4957247;28;20289;-66
2021/06/19 08:30:36;;;;;;;6.27;5.43;;;27.90;99.90;;;;;;4956036;28;20213;-66
2021/06/19 08:33:02;;;;;;;8.93;6.40;;;28.10;99.90;;;;;;4959640;28;20892;-66
2021/06/19 08:35:28;;;;;;;12.77;10.27;;;28.10;99.90;;;;;;4958525;28;20449;-65
2021/06/19 08:37:54;;;;;;;9.87;7.87;;;28.20;99.90;;;;;;4955845;28;20736;-65
2021/06/19 08:40:19;;;;;;;8.57;6.90;;;28.20;99.90;;;;;;4961032;28;20277;-66
2021/06/19 08:42:45;;;;;;;10.07;7.80;;;28.30;99.90;;;;;;4956461;28;20710;-65
2021/06/19 08:45:11;;;;;;;7.20;5.30;;;28.30;99.90;;;;;;4958278;28;20191;-65
2021/06/19 08:47:37;;;;;;;5.47;4.97;;;28.40;99.90;;;;;;4959286;28;20182;-66
2021/06/19 08:50:09;;;;;;;6.33;5.33;;;28.50;99.90;;;;;;4960326;28;20301;-64
2021/06/19 08:52:36;;;;;;;6.30;5.80;;;28.50;99.90;;;;;;4956389;28;20191;-66
2021/06/19 08:55:03;;;;;;;7.33;6.73;;;28.50;99.90;;;;;;4957297;28;20938;-63
2021/06/19 08:57:32;;;;;;;6.50;5.90;;;28.60;99.90;;;;;;4958844;28;20422;-66
2021/06/19 08:59:58;;;;;;;7.10;5.30;;;28.70;99.90;;;;;;5020147;23;20512;-66
2021/06/19 09:02:24;;;;;;;5.93;5.33;;;28.70;99.90;;;;;;4981239;28;20465;-66
2021/06/19 09:05:06;;;;;;;10.33;7.03;;;28.80;99.90;;;;;;5008018;23;20226;-64
2021/06/19 09:07:44;;;;;;;10.40;9.10;;;29.00;99.90;;;;;;4983507;28;20260;-64
2021/06/19 09:10:34;;;;;;;8.27;6.57;;;29.00;99.90;;;;;;4969096;28;20477;-66
2021/06/19 09:13:14;;;;;;;6.50;4.93;;;29.00;99.90;;;;;;5005676;23;20500;-65
2021/06/19 09:15:54;;;;;;;5.90;5.40;;;29.10;99.90;;;;;;4981659;28;20432;-65
2021/06/19 09:18:24;;;;;;;8.80;6.47;;;29.10;99.90;;;;;;4980930;28;20532;-65
2021/06/19 09:21:18;;;;;;;7.10;5.90;;;29.20;99.90;;;;;;4977405;28;20492;-65
2021/06/19 09:23:45;;;;;;;7.50;6.80;;;29.30;99.90;;;;;;4976609;28;20432;-65
2021/06/19 09:26:28;;;;;;;9.23;6.10;;;29.30;99.90;;;;;;4975680;28;20508;-63
2021/06/19 09:29:14;;;;;;;8.87;7.33;;;29.40;99.90;;;;;;4976451;28;20445;-65
2021/06/19 09:31:53;;;;;;;6.43;5.80;;;29.40;99.90;;;;;;4979615;28;20520;-65
2021/06/19 09:34:25;;;;;;;7.40;6.67;;;29.50;99.90;;;;;;4977219;28;20416;-65
2021/06/19 09:37:00;;;;;;;9.53;6.50;;;29.60;99.90;;;;;;4978162;28;20469;-65
2021/06/19 09:39:28;;;;;;;5.90;5.40;;;29.60;99.90;;;;;;5011115;23;20508;-62
2021/06/19 09:44:43;;;;;;;8.43;6.00;;;29.70;99.90;;;;;;4988270;23;20500;-64
2021/06/19 09:47:12;;;;;;;7.17;6.50;;;29.80;99.90;;;;;;4984345;28;20429;-65
2021/06/19 09:49:40;;;;;;;7.50;6.70;;;29.90;99.90;;;;;;4983639;28;20606;-64
2021/06/19 09:52:07;;;;;;;7.33;6.50;;;30.00;99.90;;;;;;4994868;28;20965;-63
2021/06/19 09:54:45;;;;;;;7.10;6.40;;;30.00;99.90;;;;;;4981755;28;20417;-64
2021/06/19 09:57:16;;;;;;;9.20;6.67;;;30.10;99.90;;;;;;4983077;28;21008;-64
2021/06/19 09:59:43;;;;;;;7.93;5.93;;;30.20;99.90;;;;;;4981884;28;20476;-64
2021/06/19 10:04:58;;;;;;;9.83;8.10;;;30.20;99.90;;;;;;4944963;29;20449;-61
2021/06/19 10:07:28;;;;;;;7.97;6.23;;;30.30;99.90;;;;;;4973274;23;20554;-64
2021/06/19 10:09:56;;;;;;;8.30;6.47;;;30.30;99.90;;;;;;4984170;28;20210;-64
2021/06/19 10:12:28;;;;;;;8.70;7.00;;;30.30;99.90;;;;;;4983706;28;20437;-64
2021/06/19 10:15:04;;;;;;;6.57;5.90;;;30.40;99.90;;;;;;4980873;28;20532;-64
2021/06/19 10:17:32;;;;;;;10.50;6.27;;;30.30;99.90;;;;;;4985039;28;20468;-64
2021/06/19 10:20:02;;;;;;;8.57;6.30;;;30.50;99.90;;;;;;4978889;28;20503;-64
2021/06/19 10:22:30;;;;;;;8.30;7.43;;;30.50;99.90;;;;;;4981828;28;20960;-64
2021/06/19 10:24:59;;;;;;;7.90;7.10;;;30.60;99.90;;;;;;4982622;28;20433;-64
2021/06/19 10:27:29;;;;;;;8.47;6.07;;;30.60;99.90;;;;;;4977496;28;20444;-64
2021/06/19 10:29:56;;;;;;;7.10;6.40;;;30.70;99.90;;;;;;4982578;28;20485;-64
2021/06/19 10:32:38;;;;;;;9.30;7.60;;;30.80;99.90;;;;;;4979590;28;20435;-64
2021/06/19 10:35:05;;;;;;;8.80;7.90;;;30.80;99.90;;;;;;4980671;28;20408;-64
2021/06/19 10:37:31;;;;;;;7.50;5.70;;;30.80;99.90;;;;;;4980258;28;20489;-64
2021/06/19 10:39:57;;;;;;;7.27;6.10;;;31.00;99.90;;;;;;4979325;28;20443;-65
2021/06/19 10:42:28;;;;;;;8.20;6.87;;;30.90;99.90;;;;;;4981725;28;20278;-64
2021/06/19 10:45:24;;;;;;;10.17;6.93;;;31.00;99.90;;;;;;4982120;28;20406;-65
2021/06/19 10:47:59;;;;;;;7.07;6.37;;;31.10;99.90;;;;;;4975272;28;20449;-65
2021/06/19 10:50:25;;;;;;;6.77;6.07;;;31.00;99.90;;;;;;4982812;28;20455;-64
2021/06/19 10:53:11;;;;;;;8.10;6.70;;;31.00;99.90;;;;;;4981654;28;20953;-64
2021/06/19 10:55:42;;;;;;;6.23;5.63;;;31.20;99.90;;;;;;4977099;28;20441;-64
2021/06/19 10:58:18;;;;;;;8.87;7.10;;;31.30;99.90;;;;;;4980682;28;20511;-65
2021/06/19 11:00:53;;;;;;;6.40;5.80;;;31.30;99.90;;;;;;4979321;28;20445;-64
2021/06/19 11:03:39;;;;;;;7.63;6.40;;;31.50;99.90;;;;;;4979987;28;20398;-64
2021/06/19 11:06:22;;;;;;;8.43;6.50;;;31.70;99.90;;;;;;4981882;28;20472;-65
2021/06/19 11:08:58;;;;;;;7.27;6.53;;;31.70;99.90;;;;;;4977176;28;20445;-64
2021/06/19 11:11:46;;;;;;;13.60;8.57;;;31.90;99.90;;;;;;4975982;28;20431;-64
2021/06/19 11:14:12;;;;;;;6.97;6.23;;;32.00;99.90;;;;;;4976538;28;20529;-65
2021/06/19 11:16:40;;;;;;;8.10;6.60;;;32.20;99.90;;;;;;4980183;28;20454;-64
2021/06/19 11:19:05;;;;;;;11.37;6.53;;;32.20;99.90;;;;;;4975920;28;20209;-64
2021/06/19 11:21:33;;;;;;;8.90;6.73;;;32.20;99.90;;;;;;4980514;28;20949;-65
2021/06/19 11:24:11;;;;;;;8.20;5.60;;;32.30;99.90;;;;;;4978648;28;20186;-64
2021/06/19 11:29:38;;;;;;;10.20;7.57;;;32.50;99.90;;;;;;4940109;28;20522;-65
2021/06/19 11:32:25;;;;;;;11.77;6.73;;;32.50;99.90;;;;;;4928237;29;20446;-64
2021/06/19 11:34:53;;;;;;;9.50;6.63;;;32.60;99.90;;;;;;4929040;29;20526;-65
2021/06/19 11:37:19;;;;;;;7.57;6.77;;;33.00;99.90;;;;;;4928906;29;20416;-64
2021/06/19 11:39:45;;;;;;;12.13;7.13;;;33.20;99.90;;;;;;4921477;29;20462;-65
2021/06/19 11:42:11;;;;;;;7.20;6.50;;;33.30;99.90;;;;;;4929259;29;20404;-65
2021/06/19 11:44:43;;;;;;;8.20;6.30;;;33.60;99.90;;;;;;4921824;28;20434;-64
2021/06/19 11:47:09;;;;;;;8.00;6.57;;;33.70;99.90;;;;;;4924385;29;20195;-65
2021/06/19 11:49:45;;;;;;;8.60;6.23;;;34.00;99.90;;;;;;4935239;28;20477;-65
2021/06/19 11:52:16;;;;;;;13.27;6.50;;;34.20;99.90;;;;;;4985610;23;21005;-64
2021/06/19 11:54:44;;;;;;;10.30;7.07;;;34.40;99.90;;;;;;4983731;28;20789;-65
2021/06/19 11:57:22;;;;;;;8.23;6.90;;;34.60;99.90;;;;;;4976370;28;20452;-65
2021/06/19 12:00:15;;;;;;;10.53;6.90;;;34.80;99.90;;;;;;5006440;23;20549;-65
2021/06/19 12:02:41;;;;;;;11.37;7.07;;;35.20;99.90;;;;;;4971476;28;20801;-64
2021/06/19 12:05:12;;;;;;;11.10;7.43;;;35.80;99.90;;;;;;5002448;23;21009;-66
2021/06/19 12:07:38;;;;;;;11.03;6.80;;;37.00;99.60;;;;;;4978351;28;20412;-64
2021/06/19 12:10:24;;;;;;;8.97;6.63;;;37.80;96.20;;;;;;4977448;28;20525;-64
2021/06/19 12:13:02;;;;;;;8.60;7.80;;;38.60;92.20;;;;;;4969280;28;20186;-63
2021/06/19 12:15:29;;;;;;;12.27;6.27;;;39.30;89.00;;;;;;4971323;28;20434;-63
2021/06/19 12:17:56;;;;;;;17.93;6.17;;;40.10;84.00;;;;;;4957665;28;20492;-63
2021/06/19 12:20:23;;;;;;;13.07;7.47;;;40.40;80.90;;;;;;4973442;28;20988;-63
2021/06/19 12:22:50;;;;;;;10.20;7.53;;;41.20;78.30;;;;;;4990409;23;20504;-60
2021/06/19 12:27:45;;;;;;;8.40;7.60;;;40.70;75.20;;;;;;4964852;28;20504;-64
2021/06/19 12:30:13;;;;;;;8.43;6.83;;;40.60;71.10;;;;;;4963441;28;20469;-63
2021/06/19 12:32:41;;;;;;;8.10;7.30;;;42.10;71.80;;;;;;4962756;28;20234;-66
2021/06/19 12:35:19;;;;;;;10.83;7.03;;;43.00;66.30;;;;;;4982707;23;20504;-62
2021/06/19 12:37:56;;;;;;;7.47;5.80;;;41.80;62.50;;;;;;4997251;23;20504;-65
2021/06/19 12:40:35;;;;;;;8.63;6.77;;;40.60;62.30;;;;;;4978536;28;20441;-65
2021/06/19 12:43:06;;;;;;;8.43;7.27;;;39.50;65.50;;;;;;4975441;28;20480;-65
2021/06/19 12:45:38;;;;;;;7.43;6.37;;;38.30;70.50;;;;;;4970945;28;20442;-65
2021/06/19 12:48:08;;;;;;;7.37;6.70;;;37.50;68.00;;;;;;4972716;28;20500;-65
2021/06/19 12:50:36;;;;;;;9.10;7.47;;;36.90;70.30;;;;;;4974328;28;21120;-67
2021/06/19 12:53:07;;;;;;;7.77;6.70;;;36.00;69.20;;;;;;4973798;28;20420;-66
2021/06/19 12:55:40;;;;;;;15.00;7.77;;;35.30;70.70;;;;;;4978836;28;20498;-67
2021/06/19 12:58:18;;;;;;;8.83;7.27;;;34.70;73.40;;;;;;4974429;28;20942;-65
2021/06/19 13:00:55;;;;;;;9.97;7.53;;;34.40;77.10;;;;;;4971989;28;20416;-64
2021/06/19 13:03:23;;;;;;;9.00;8.10;;;33.80;85.00;;;;;;4968923;28;20904;-66
2021/06/19 13:06:00;;;;;;;9.17;7.20;;;33.50;84.50;;;;;;4974153;28;20444;-64
2021/06/19 13:08:27;;;;;;;8.23;7.33;;;33.30;84.80;;;;;;4971734;28;20436;-65
2021/06/19 13:11:14;;;;;;;9.03;7.10;;;33.20;86.60;;;;;;4972469;28;20500;-64
2021/06/19 13:13:46;;;;;;;9.93;7.73;;;33.30;89.10;;;;;;4964822;28;20423;-65